地図

経路データ

SID SEASON NUMBER BASIN SUBBASIN NAME ISO_TIME NATURE LAT LON WMO_WIND WMO_PRES WMO_AGENCY TRACK_TYPE DIST2LAND LANDFALL IFLAG USA_AGENCY USA_ATCF_ID USA_LAT USA_LON USA_RECORD USA_STATUS USA_WIND USA_PRES USA_SSHS USA_R34_NE USA_R34_SE USA_R34_SW USA_R34_NW USA_R50_NE USA_R50_SE USA_R50_SW USA_R50_NW USA_R64_NE USA_R64_SE USA_R64_SW USA_R64_NW USA_POCI USA_ROCI USA_RMW USA_EYE TOKYO_LAT TOKYO_LON TOKYO_GRADE TOKYO_WIND TOKYO_PRES TOKYO_R50_DIR TOKYO_R50_LONG TOKYO_R50_SHORT TOKYO_R30_DIR TOKYO_R30_LONG TOKYO_R30_SHORT TOKYO_LAND CMA_LAT CMA_LON CMA_CAT CMA_WIND CMA_PRES HKO_LAT HKO_LON HKO_CAT HKO_WIND HKO_PRES NEWDELHI_LAT NEWDELHI_LON NEWDELHI_GRADE NEWDELHI_WIND NEWDELHI_PRES NEWDELHI_CI NEWDELHI_DP NEWDELHI_POCI REUNION_LAT REUNION_LON REUNION_TYPE REUNION_WIND REUNION_PRES REUNION_TNUM REUNION_CI REUNION_RMW REUNION_R34_NE REUNION_R34_SE REUNION_R34_SW REUNION_R34_NW REUNION_R50_NE REUNION_R50_SE REUNION_R50_SW REUNION_R50_NW REUNION_R64_NE REUNION_R64_SE REUNION_R64_SW REUNION_R64_NW BOM_LAT BOM_LON BOM_TYPE BOM_WIND BOM_PRES BOM_TNUM BOM_CI BOM_RMW BOM_R34_NE BOM_R34_SE BOM_R34_SW BOM_R34_NW BOM_R50_NE BOM_R50_SE BOM_R50_SW BOM_R50_NW BOM_R64_NE BOM_R64_SE BOM_R64_SW BOM_R64_NW BOM_ROCI BOM_POCI BOM_EYE BOM_POS_METHOD BOM_PRES_METHOD NADI_LAT NADI_LON NADI_CAT NADI_WIND NADI_PRES WELLINGTON_LAT WELLINGTON_LON WELLINGTON_WIND WELLINGTON_PRES DS824_LAT DS824_LON DS824_STAGE DS824_WIND DS824_PRES TD9636_LAT TD9636_LON TD9636_STAGE TD9636_WIND TD9636_PRES TD9635_LAT TD9635_LON TD9635_WIND TD9635_PRES TD9635_ROCI NEUMANN_LAT NEUMANN_LON NEUMANN_CLASS NEUMANN_WIND NEUMANN_PRES MLC_LAT MLC_LON MLC_CLASS MLC_WIND MLC_PRES USA_GUST BOM_GUST BOM_GUST_PER REUNION_GUST REUNION_GUST_PER USA_SEAHGT USA_SEARAD_NE USA_SEARAD_SE USA_SEARAD_SW USA_SEARAD_NW STORM_SPEED STORM_DIR
1943032S16405 1943 13 SI MM NOT_NAMED 1943-01-31 18:00:00 NR -16.0000 44.8000 main 24 24 __________O___ -1 -16.0000 44.8000 7 8 264
1943032S16405 1943 13 SI MM NOT_NAMED 1943-01-31 21:00:00 NR -16.0412 44.3766 main 33 24 __________P___ -1 -16.0412 44.3766 7 8 264
1943032S16405 1943 13 SI MM NOT_NAMED 1943-02-01 00:00:00 NR -16.0856 43.9526 main 48 48 __________P___ -1 -16.0856 43.9526 7 8 263
1943032S16405 1943 13 SI MM NOT_NAMED 1943-02-01 03:00:00 NR -16.1372 43.5272 main 98 98 __________P___ -1 -16.1372 43.5272 7 8 262
1943032S16405 1943 13 SI MM NOT_NAMED 1943-02-01 06:00:00 NR -16.2000 43.1000 main 139 139 __________O___ -1 -16.2000 43.1000 7 8 260
1943032S16405 1943 13 SI MM NOT_NAMED 1943-02-01 09:00:00 NR -16.2773 42.6709 main 179 179 __________P___ -1 -16.2773 42.6709 7 8 258
1943032S16405 1943 13 SI MM NOT_NAMED 1943-02-01 12:00:00 NR -16.3698 42.2424 main 204 174 __________P___ -1 -16.3698 42.2424 7 8 256
1943032S16405 1943 13 SI MM NOT_NAMED 1943-02-01 15:00:00 NR -16.4773 41.8177 main 174 146 __________P___ -1 -16.4773 41.8177 7 8 254
1943032S16405 1943 13 SI MM NOT_NAMED 1943-02-01 18:00:00 NR -16.6000 41.4000 main 146 120 __________O___ -1 -16.6000 41.4000 7 9 253
1943032S16405 1943 13 SI MM NOT_NAMED 1943-02-01 21:00:00 NR -16.7235 40.9563 main 120 86 __________P___ -1 -16.7235 40.9563 7 9 253
1943032S16405 1943 13 SI MM NOT_NAMED 1943-02-02 00:00:00 NR -16.8627 40.5251 main 86 69 __________P___ -1 -16.8627 40.5251 7 8 249
1943032S16405 1943 13 SI MM NOT_NAMED 1943-02-02 03:00:00 NR -17.0205 40.1313 main 64 64 __________P___ -1 -17.0205 40.1313 7 8 244
1943032S16405 1943 13 SI MM NOT_NAMED 1943-02-02 06:00:00 NR -17.2000 39.8000 main 69 61 __________O___ -1 -17.2000 39.8000 7 7 237
1943032S16405 1943 13 SI MM NOT_NAMED 1943-02-02 09:00:00 NR -17.3949 39.5318 main 61 61 __________P___ -1 -17.3949 39.5318 7 6 227
1943032S16405 1943 13 SI MM NOT_NAMED 1943-02-02 12:00:00 NR -17.6121 39.3300 main 70 70 __________P___ -1 -17.6121 39.3300 7 6 216
1943032S16405 1943 13 SI MM NOT_NAMED 1943-02-02 15:00:00 NR -17.8482 39.1882 main 90 90 __________P___ -1 -17.8482 39.1882 7 5 204
1943032S16405 1943 13 SI MM NOT_NAMED 1943-02-02 18:00:00 NR -18.1000 39.1000 main 119 119 __________O___ -1 -18.1000 39.1000 7 5 194
1943032S16405 1943 13 SI MM NOT_NAMED 1943-02-02 21:00:00 NR -18.3642 39.0583 main 151 151 __________P___ -1 -18.3642 39.0583 7 5 185
1943032S16405 1943 13 SI MM NOT_NAMED 1943-02-03 00:00:00 NR -18.6376 39.0523 main 173 173 __________P___ -1 -18.6376 39.0523 7 6 0
1943032S16405 1943 13 SI MM NOT_NAMED 1943-02-03 03:00:00 NR -18.9173 39.0701 main 205 205 __________P___ -1 -18.9173 39.0701 7 6 176
1943032S16405 1943 13 SI MM NOT_NAMED 1943-02-03 06:00:00 NR -19.2000 39.1000 main 237 __________O___ -1 -19.2000 39.1000 7 6 172

IBTrACS Databaseについて

本データベースは、米国NOAAが公開する1842年以降の世界の熱帯低気圧のベストトラックデータアーカイブInternational Best Track Archive for Climate Stewardship (IBTrACS)を、ウェブで閲覧しやすい形式に変換したものです。

最終更新日:2021-11-26